sensor_id;sensor_type;location;lat;lon;timestamp;temperature;humidity
67165;SHT31;54093;50.014;19.984;2023-02-18T00:05:50;10.84;75.39
67165;SHT31;54093;50.014;19.984;2023-02-18T00:15:11;10.74;75.61
67165;SHT31;54093;50.014;19.984;2023-02-18T00:24:32;10.74;74.96
67165;SHT31;54093;50.014;19.984;2023-02-18T00:33:55;10.80;75.33
67165;SHT31;54093;50.014;19.984;2023-02-18T00:43:16;10.76;74.88
67165;SHT31;54093;50.014;19.984;2023-02-18T00:52:37;10.89;73.39
67165;SHT31;54093;50.014;19.984;2023-02-18T01:01:58;11.04;72.00
67165;SHT31;54093;50.014;19.984;2023-02-18T01:11:19;11.17;71.41
67165;SHT31;54093;50.014;19.984;2023-02-18T01:20:42;11.10;72.87
67165;SHT31;54093;50.014;19.984;2023-02-18T01:30:05;10.72;72.38
67165;SHT31;54093;50.014;19.984;2023-02-18T01:39:26;10.49;70.64
67165;SHT31;54093;50.014;19.984;2023-02-18T01:48:57;10.35;69.00
67165;SHT31;54093;50.014;19.984;2023-02-18T01:58:19;10.24;68.71
67165;SHT31;54093;50.014;19.984;2023-02-18T02:07:41;10.02;68.09
67165;SHT31;54093;50.014;19.984;2023-02-18T02:26:57;9.99;64.10
67165;SHT31;54093;50.014;19.984;2023-02-18T02:55:23;9.73;60.75
67165;SHT31;54093;50.014;19.984;2023-02-18T03:04:57;9.76;61.58
67165;SHT31;54093;50.014;19.984;2023-02-18T03:24:26;9.63;63.58
67165;SHT31;54093;50.014;19.984;2023-02-18T03:34:03;9.49;65.36
67165;SHT31;54093;50.014;19.984;2023-02-18T03:43:25;9.47;66.30
67165;SHT31;54093;50.014;19.984;2023-02-18T03:52:46;9.40;64.04
67165;SHT31;54093;50.014;19.984;2023-02-18T04:02:07;9.28;66.24
67165;SHT31;54093;50.014;19.984;2023-02-18T04:11:28;9.18;70.62
67165;SHT31;54093;50.014;19.984;2023-02-18T04:20:50;9.04;72.18
67165;SHT31;54093;50.014;19.984;2023-02-18T04:30:12;9.05;72.53
67165;SHT31;54093;50.014;19.984;2023-02-18T04:39:33;8.98;69.79
67165;SHT31;54093;50.014;19.984;2023-02-18T04:48:54;8.97;66.80
67165;SHT31;54093;50.014;19.984;2023-02-18T04:58:15;8.97;59.15
67165;SHT31;54093;50.014;19.984;2023-02-18T05:07:36;8.85;58.33
67165;SHT31;54093;50.014;19.984;2023-02-18T05:16:57;8.84;56.86
67165;SHT31;54093;50.014;19.984;2023-02-18T05:26:18;8.71;55.95
67165;SHT31;54093;50.014;19.984;2023-02-18T05:35:39;8.56;54.54
67165;SHT31;54093;50.014;19.984;2023-02-18T05:45:00;8.39;55.70
67165;SHT31;54093;50.014;19.984;2023-02-18T05:54:21;8.36;55.31
67165;SHT31;54093;50.014;19.984;2023-02-18T06:03:42;8.39;49.15
67165;SHT31;54093;50.014;19.984;2023-02-18T06:13:03;8.22;49.71
67165;SHT31;54093;50.014;19.984;2023-02-18T06:22:24;8.23;49.42
67165;SHT31;54093;50.014;19.984;2023-02-18T06:31:45;8.34;46.72
67165;SHT31;54093;50.014;19.984;2023-02-18T06:41:07;8.51;46.26
67165;SHT31;54093;50.014;19.984;2023-02-18T06:50:28;8.56;48.00
67165;SHT31;54093;50.014;19.984;2023-02-18T06:59:49;8.63;46.52
67165;SHT31;54093;50.014;19.984;2023-02-18T07:09:10;8.64;46.89
67165;SHT31;54093;50.014;19.984;2023-02-18T07:18:31;8.81;46.69
67165;SHT31;54093;50.014;19.984;2023-02-18T07:27:52;8.84;47.09
67165;SHT31;54093;50.014;19.984;2023-02-18T07:37:13;8.98;46.31
67165;SHT31;54093;50.014;19.984;2023-02-18T07:46:38;8.99;47.16
67165;SHT31;54093;50.014;19.984;2023-02-18T07:56:00;8.99;48.32
67165;SHT31;54093;50.014;19.984;2023-02-18T08:05:22;9.08;46.36
67165;SHT31;54093;50.014;19.984;2023-02-18T08:14:44;9.12;44.79
67165;SHT31;54093;50.014;19.984;2023-02-18T08:24:05;9.12;44.76
67165;SHT31;54093;50.014;19.984;2023-02-18T08:33:28;9.12;44.06
67165;SHT31;54093;50.014;19.984;2023-02-18T08:42:49;9.18;44.16
67165;SHT31;54093;50.014;19.984;2023-02-18T08:52:44;9.28;44.35
67165;SHT31;54093;50.014;19.984;2023-02-18T09:03:03;9.33;44.51
67165;SHT31;54093;50.014;19.984;2023-02-18T09:12:27;9.37;44.25
67165;SHT31;54093;50.014;19.984;2023-02-18T09:21:49;9.39;43.12
67165;SHT31;54093;50.014;19.984;2023-02-18T09:31:15;9.33;44.67
67165;SHT31;54093;50.014;19.984;2023-02-18T09:40:39;9.42;46.00
67165;SHT31;54093;50.014;19.984;2023-02-18T09:50:14;9.44;46.99
67165;SHT31;54093;50.014;19.984;2023-02-18T09:59:37;9.51;46.85
67165;SHT31;54093;50.014;19.984;2023-02-18T10:09:24;9.46;48.50
67165;SHT31;54093;50.014;19.984;2023-02-18T10:18:47;9.51;49.31
67165;SHT31;54093;50.014;19.984;2023-02-18T10:28:11;9.64;46.68
67165;SHT31;54093;50.014;19.984;2023-02-18T10:37:45;9.64;46.01
67165;SHT31;54093;50.014;19.984;2023-02-18T10:47:32;9.63;47.98
67165;SHT31;54093;50.014;19.984;2023-02-18T10:56:58;9.58;49.93
67165;SHT31;54093;50.014;19.984;2023-02-18T11:06:37;9.46;51.38
67165;SHT31;54093;50.014;19.984;2023-02-18T11:16:04;9.37;52.90
67165;SHT31;54093;50.014;19.984;2023-02-18T11:25:27;9.35;54.53
67165;SHT31;54093;50.014;19.984;2023-02-18T11:34:52;9.43;55.31
67165;SHT31;54093;50.014;19.984;2023-02-18T12:03:43;8.77;62.67
67165;SHT31;54093;50.014;19.984;2023-02-18T12:13:25;8.46;65.49
67165;SHT31;54093;50.014;19.984;2023-02-18T12:23:04;8.17;67.87
67165;SHT31;54093;50.014;19.984;2023-02-18T12:42:35;8.06;69.38
67165;SHT31;54093;50.014;19.984;2023-02-18T12:52:13;8.13;69.91
67165;SHT31;54093;50.014;19.984;2023-02-18T13:11:25;8.19;71.86
67165;SHT31;54093;50.014;19.984;2023-02-18T13:21:14;8.12;72.61
67165;SHT31;54093;50.014;19.984;2023-02-18T13:30:47;7.95;72.51
67165;SHT31;54093;50.014;19.984;2023-02-18T13:40:18;7.88;72.95
67165;SHT31;54093;50.014;19.984;2023-02-18T13:49:39;7.65;73.57
67165;SHT31;54093;50.014;19.984;2023-02-18T13:59:17;7.58;73.55
67165;SHT31;54093;50.014;19.984;2023-02-18T14:08:39;7.41;73.71
67165;SHT31;54093;50.014;19.984;2023-02-18T14:27:34;7.33;74.33
67165;SHT31;54093;50.014;19.984;2023-02-18T14:37:16;7.27;74.71
67165;SHT31;54093;50.014;19.984;2023-02-18T14:56:27;7.13;75.88
67165;SHT31;54093;50.014;19.984;2023-02-18T15:05:49;7.10;76.17
67165;SHT31;54093;50.014;19.984;2023-02-18T15:15:14;7.09;76.82
67165;SHT31;54093;50.014;19.984;2023-02-18T15:24:36;7.00;76.91
67165;SHT31;54093;50.014;19.984;2023-02-18T15:33:58;6.97;77.63
67165;SHT31;54093;50.014;19.984;2023-02-18T15:43:23;6.93;78.14
67165;SHT31;54093;50.014;19.984;2023-02-18T15:52:46;6.85;78.75
67165;SHT31;54093;50.014;19.984;2023-02-18T16:11:33;6.58;80.35
67165;SHT31;54093;50.014;19.984;2023-02-18T16:30:21;6.64;81.05
67165;SHT31;54093;50.014;19.984;2023-02-18T16:39:43;6.72;81.53
67165;SHT31;54093;50.014;19.984;2023-02-18T16:49:07;6.91;83.12
67165;SHT31;54093;50.014;19.984;2023-02-18T16:58:34;7.04;84.03
67165;SHT31;54093;50.014;19.984;2023-02-18T17:08:16;7.37;84.47
67165;SHT31;54093;50.014;19.984;2023-02-18T17:17:39;7.82;85.44
67165;SHT31;54093;50.014;19.984;2023-02-18T17:27:05;8.26;85.71
67165;SHT31;54093;50.014;19.984;2023-02-18T17:36:29;9.02;84.09
67165;SHT31;54093;50.014;19.984;2023-02-18T17:45:54;9.50;81.59
67165;SHT31;54093;50.014;19.984;2023-02-18T17:55:24;9.80;79.26
67165;SHT31;54093;50.014;19.984;2023-02-18T18:04:45;9.83;78.08
67165;SHT31;54093;50.014;19.984;2023-02-18T18:14:09;9.94;78.23
67165;SHT31;54093;50.014;19.984;2023-02-18T18:23:31;9.83;79.15
67165;SHT31;54093;50.014;19.984;2023-02-18T18:32:55;9.85;78.41
67165;SHT31;54093;50.014;19.984;2023-02-18T18:42:16;9.88;78.26
67165;SHT31;54093;50.014;19.984;2023-02-18T18:51:37;9.78;79.07
67165;SHT31;54093;50.014;19.984;2023-02-18T19:01:01;9.78;78.79
67165;SHT31;54093;50.014;19.984;2023-02-18T19:10:22;9.71;79.15
67165;SHT31;54093;50.014;19.984;2023-02-18T19:19:43;9.63;78.48
67165;SHT31;54093;50.014;19.984;2023-02-18T19:29:04;9.78;75.61
67165;SHT31;54093;50.014;19.984;2023-02-18T19:38:25;9.84;74.00
67165;SHT31;54093;50.014;19.984;2023-02-18T19:47:46;9.90;73.53
67165;SHT31;54093;50.014;19.984;2023-02-18T19:57:07;9.87;72.46
67165;SHT31;54093;50.014;19.984;2023-02-18T20:06:28;9.85;72.09
67165;SHT31;54093;50.014;19.984;2023-02-18T20:15:49;9.80;72.28
67165;SHT31;54093;50.014;19.984;2023-02-18T20:25:10;9.80;72.05
67165;SHT31;54093;50.014;19.984;2023-02-18T20:34:31;9.80;71.30
67165;SHT31;54093;50.014;19.984;2023-02-18T20:43:57;9.71;71.81
67165;SHT31;54093;50.014;19.984;2023-02-18T20:53:18;9.66;73.28
67165;SHT31;54093;50.014;19.984;2023-02-18T21:02:41;9.43;75.89
67165;SHT31;54093;50.014;19.984;2023-02-18T21:12:02;9.18;77.65
67165;SHT31;54093;50.014;19.984;2023-02-18T21:21:24;9.02;78.84
67165;SHT31;54093;50.014;19.984;2023-02-18T21:30:45;8.91;77.84
67165;SHT31;54093;50.014;19.984;2023-02-18T21:40:06;8.82;76.24
67165;SHT31;54093;50.014;19.984;2023-02-18T21:49:27;8.77;76.49
67165;SHT31;54093;50.014;19.984;2023-02-18T21:58:48;8.71;76.51
67165;SHT31;54093;50.014;19.984;2023-02-18T22:08:09;8.53;77.55
67165;SHT31;54093;50.014;19.984;2023-02-18T22:17:30;8.41;78.54
67165;SHT31;54093;50.014;19.984;2023-02-18T22:26:51;8.22;79.20
67165;SHT31;54093;50.014;19.984;2023-02-18T22:36:12;8.33;77.50
67165;SHT31;54093;50.014;19.984;2023-02-18T22:45:37;8.26;77.70
67165;SHT31;54093;50.014;19.984;2023-02-18T22:54:58;8.23;77.74
67165;SHT31;54093;50.014;19.984;2023-02-18T23:04:19;8.14;78.18
67165;SHT31;54093;50.014;19.984;2023-02-18T23:13:41;8.12;78.45
67165;SHT31;54093;50.014;19.984;2023-02-18T23:23:02;7.99;78.64
67165;SHT31;54093;50.014;19.984;2023-02-18T23:32:23;7.98;78.05
67165;SHT31;54093;50.014;19.984;2023-02-18T23:41:46;7.88;78.59
67165;SHT31;54093;50.014;19.984;2023-02-18T23:51:08;7.85;79.28
